createdAt,value
2018-11-03T00:01:02.067Z,12.07
2018-11-03T00:02:37.023Z,13.27
2018-11-03T00:04:12.928Z,12.23
2018-11-03T00:05:48.032Z,12.80
2018-11-03T00:07:23.372Z,13.27
2018-11-03T00:08:58.286Z,12.83
2018-11-03T00:10:33.234Z,11.83
2018-11-03T00:12:08.168Z,12.67
2018-11-03T00:13:43.111Z,12.00
2018-11-03T00:15:18.065Z,12.37
2018-11-03T00:16:52.947Z,12.47
2018-11-03T00:18:27.910Z,11.97
2018-11-03T00:20:03.188Z,12.37
2018-11-03T00:21:38.316Z,11.43
2018-11-03T00:23:13.223Z,12.30
2018-11-03T00:24:48.291Z,11.87
2018-11-03T00:26:23.180Z,11.70
2018-11-03T00:27:58.935Z,11.63
2018-11-03T00:29:34.161Z,11.33
2018-11-03T00:31:09.917Z,11.23
2018-11-03T00:32:45.552Z,11.20
2018-11-03T00:34:20.519Z,12.00
2018-11-03T00:35:55.450Z,11.97
2018-11-03T00:37:30.393Z,11.77
2018-11-03T00:39:08.340Z,11.87
2018-11-03T00:40:43.267Z,11.20
2018-11-03T00:42:18.218Z,11.47
2018-11-03T00:43:53.142Z,12.33
2018-11-03T00:45:28.647Z,12.43
2018-11-03T00:47:03.747Z,11.93
2018-11-03T00:48:38.739Z,12.07
2018-11-03T00:50:14.852Z,10.93
2018-11-03T00:51:49.867Z,12.00
2018-11-03T00:53:25.024Z,11.97
2018-11-03T00:55:00.090Z,11.20
2018-11-03T00:56:35.174Z,11.73
2018-11-03T00:58:10.123Z,11.50
2018-11-03T00:59:45.047Z,12.27
2018-11-03T01:01:19.973Z,11.70
2018-11-03T01:02:54.903Z,10.97
2018-11-03T01:04:29.955Z,11.67
2018-11-03T01:06:05.012Z,11.70
2018-11-03T01:07:40.978Z,11.37
2018-11-03T01:09:15.917Z,11.13
2018-11-03T01:10:50.910Z,11.10
2018-11-03T01:12:25.885Z,11.80
2018-11-03T01:14:00.789Z,11.50
2018-11-03T01:15:35.755Z,10.00
2018-11-03T01:17:10.779Z,11.43
2018-11-03T01:18:45.731Z,10.43
2018-11-03T01:20:20.793Z,11.67
2018-11-03T01:21:55.676Z,12.07
2018-11-03T01:23:30.698Z,11.87
2018-11-03T01:25:05.910Z,11.30
2018-11-03T01:26:40.826Z,10.00
2018-11-03T01:28:15.771Z,11.77
2018-11-03T01:29:50.625Z,11.30
2018-11-03T01:31:25.883Z,11.27
2018-11-03T01:33:01.044Z,10.67
2018-11-03T01:34:35.945Z,11.53
2018-11-03T01:36:10.842Z,10.73
2018-11-03T01:37:45.739Z,10.90
2018-11-03T01:39:20.700Z,11.30
2018-11-03T01:40:55.783Z,11.03
2018-11-03T01:42:30.783Z,10.50
2018-11-03T01:44:05.795Z,10.57
2018-11-03T01:45:40.766Z,11.20
2018-11-03T01:47:15.704Z,11.33
2018-11-03T01:48:50.684Z,10.83
2018-11-03T01:50:25.608Z,10.57
2018-11-03T01:52:00.533Z,11.13
2018-11-03T01:53:35.779Z,11.57
2018-11-03T01:55:10.789Z,11.53
2018-11-03T01:56:45.697Z,11.03
2018-11-03T01:58:20.672Z,11.50
2018-11-03T01:59:55.976Z,11.40
2018-11-03T02:01:30.974Z,11.03
2018-11-03T02:03:06.099Z,11.13
2018-11-03T02:04:41.269Z,10.03
2018-11-03T02:06:16.315Z,11.37
2018-11-03T02:07:51.219Z,11.37
2018-11-03T02:09:26.163Z,11.40
2018-11-03T02:11:01.168Z,11.70
2018-11-03T02:12:36.124Z,10.47
2018-11-03T02:14:14.876Z,11.20
2018-11-03T02:15:50.003Z,11.03
2018-11-03T02:17:24.968Z,12.10
2018-11-03T02:18:59.921Z,10.37
2018-11-03T02:20:34.792Z,11.57
2018-11-03T02:22:09.722Z,11.27
2018-11-03T02:23:44.595Z,11.53
2018-11-03T02:25:19.540Z,11.20
2018-11-03T02:26:54.833Z,10.53
2018-11-03T02:28:29.749Z,11.10
2018-11-03T02:30:04.608Z,10.87
2018-11-03T02:31:39.562Z,11.27
2018-11-03T02:33:14.548Z,10.83
2018-11-03T02:34:49.476Z,11.27
2018-11-03T02:36:24.378Z,11.97
2018-11-03T02:37:59.302Z,10.40
2018-11-03T02:39:34.177Z,11.87
2018-11-03T02:41:09.196Z,10.97
2018-11-03T02:42:44.181Z,10.93
2018-11-03T02:44:19.071Z,11.70
2018-11-03T02:45:53.948Z,11.33
2018-11-03T02:47:28.924Z,11.23
2018-11-03T02:49:10.470Z,11.03
2018-11-03T02:50:45.370Z,10.93
2018-11-03T02:52:20.295Z,10.53
2018-11-03T02:53:55.219Z,10.80
2018-11-03T02:55:30.083Z,11.07
2018-11-03T02:57:05.213Z,10.67
2018-11-03T02:58:40.264Z,10.77
2018-11-03T03:00:15.323Z,11.77
2018-11-03T03:01:50.235Z,11.30
2018-11-03T03:03:25.135Z,11.30
2018-11-03T03:05:00.011Z,11.03
2018-11-03T03:06:35.023Z,10.93
2018-11-03T03:08:09.924Z,9.83
2018-11-03T03:09:44.887Z,11.10
2018-11-03T03:11:19.807Z,10.73
2018-11-03T03:12:54.700Z,10.73
2018-11-03T03:14:29.661Z,10.80
2018-11-03T03:16:04.620Z,10.97
2018-11-03T03:17:39.548Z,11.77
2018-11-03T03:19:14.472Z,11.10
2018-11-03T03:20:49.389Z,10.80
2018-11-03T03:22:24.312Z,9.60
2018-11-03T03:23:59.302Z,10.37
2018-11-03T03:25:34.202Z,11.07
2018-11-03T03:27:09.157Z,10.60
2018-11-03T03:28:44.195Z,10.97
2018-11-03T03:30:19.099Z,10.50
2018-11-03T03:31:54.087Z,10.20
2018-11-03T03:33:29.061Z,10.53
2018-11-03T03:35:03.966Z,10.30
2018-11-03T03:36:38.912Z,12.07
2018-11-03T03:38:13.848Z,10.43
2018-11-03T03:39:48.740Z,10.07
2018-11-03T03:41:23.666Z,10.60
2018-11-03T03:42:58.626Z,10.60
2018-11-03T03:44:33.490Z,10.80
2018-11-03T03:46:08.365Z,11.20
2018-11-03T03:47:43.296Z,10.80
2018-11-03T03:49:18.262Z,10.87
2018-11-03T03:50:53.350Z,11.23
2018-11-03T03:52:28.284Z,11.03
2018-11-03T03:54:03.197Z,11.23
2018-11-03T03:55:38.064Z,10.30
2018-11-03T03:57:12.955Z,10.53
2018-11-03T03:58:47.810Z,11.20
2018-11-03T04:00:22.716Z,11.13
2018-11-03T04:01:57.599Z,11.20
2018-11-03T04:03:32.519Z,11.00
2018-11-03T04:05:07.877Z,10.60
2018-11-03T04:06:42.858Z,11.23
2018-11-03T04:08:17.819Z,11.57
2018-11-03T04:09:52.766Z,10.90
2018-11-03T04:11:27.596Z,10.23
2018-11-03T04:13:02.626Z,10.77
2018-11-03T04:14:37.527Z,10.50
2018-11-03T04:16:12.543Z,10.60
2018-11-03T04:17:47.451Z,10.27
2018-11-03T04:19:22.317Z,10.90
2018-11-03T04:20:57.229Z,11.17
2018-11-03T04:22:32.168Z,11.57
2018-11-03T04:24:07.044Z,10.97
2018-11-03T04:25:42.280Z,10.20
2018-11-03T04:27:17.227Z,11.27
2018-11-03T04:28:52.081Z,10.97
2018-11-03T04:30:26.955Z,10.93
2018-11-03T04:32:01.913Z,11.00
2018-11-03T04:33:36.807Z,10.27
2018-11-03T04:35:11.955Z,10.40
2018-11-03T04:36:46.846Z,10.50
2018-11-03T04:38:21.766Z,10.17
2018-11-03T04:39:56.721Z,12.00
2018-11-03T04:41:31.670Z,10.40
2018-11-03T04:43:06.556Z,10.47
2018-11-03T04:44:41.451Z,10.43
2018-11-03T04:46:16.320Z,10.83
2018-11-03T04:47:51.291Z,9.90
2018-11-03T04:49:26.295Z,9.60
2018-11-03T04:51:01.189Z,10.17
2018-11-03T04:52:36.271Z,10.37
2018-11-03T04:54:11.203Z,10.87
2018-11-03T04:55:46.287Z,10.20
2018-11-03T04:57:21.167Z,10.23
2018-11-03T04:58:56.235Z,10.93
2018-11-03T05:00:31.113Z,10.23
2018-11-03T05:02:06.074Z,11.13
2018-11-03T05:03:40.993Z,10.00
2018-11-03T05:05:15.923Z,10.67
2018-11-03T05:06:50.811Z,11.13
2018-11-03T05:08:25.912Z,11.03
2018-11-03T05:10:00.835Z,9.93
2018-11-03T05:11:35.687Z,11.17
2018-11-03T05:13:10.611Z,10.60
2018-11-03T05:14:45.533Z,10.77
2018-11-03T05:16:20.426Z,10.33
2018-11-03T05:17:55.490Z,9.80
2018-11-03T05:19:30.435Z,10.40
2018-11-03T05:21:05.527Z,10.47
2018-11-03T05:22:40.378Z,10.43
2018-11-03T05:24:15.311Z,11.00
2018-11-03T05:25:50.179Z,11.13
2018-11-03T05:27:25.051Z,10.30
2018-11-03T05:28:59.955Z,10.73
2018-11-03T05:30:34.968Z,9.00
2018-11-03T05:32:09.850Z,10.37
2018-11-03T05:33:44.800Z,10.10
2018-11-03T05:35:19.748Z,10.67
2018-11-03T05:36:54.673Z,10.00
2018-11-03T05:38:29.822Z,10.57
2018-11-03T05:40:04.962Z,10.00
2018-11-03T05:41:40.015Z,10.33
2018-11-03T05:43:14.927Z,10.07
2018-11-03T05:44:49.794Z,9.67
2018-11-03T05:46:24.732Z,9.90
2018-11-03T05:47:59.914Z,10.10
2018-11-03T05:49:34.852Z,10.70
2018-11-03T05:51:10.033Z,10.33
2018-11-03T05:52:45.427Z,9.87
2018-11-03T05:54:20.399Z,9.60
2018-11-03T05:55:55.311Z,9.83
2018-11-03T05:57:30.255Z,9.90
2018-11-03T05:59:05.614Z,10.07
2018-11-03T06:00:40.440Z,10.77
2018-11-03T06:02:15.350Z,9.07
2018-11-03T06:03:50.255Z,10.83
2018-11-03T06:05:25.408Z,9.73
2018-11-03T06:07:00.282Z,10.40
2018-11-03T06:08:35.568Z,9.60
2018-11-03T06:10:10.652Z,9.83
2018-11-03T06:11:45.580Z,9.67
2018-11-03T06:13:20.519Z,10.03
2018-11-03T06:14:55.550Z,10.23
2018-11-03T06:16:30.489Z,9.13
2018-11-03T06:18:06.040Z,9.63
2018-11-03T06:19:41.171Z,10.23
2018-11-03T06:21:16.025Z,9.70
2018-11-03T06:22:50.987Z,9.87
2018-11-03T06:24:25.880Z,10.23
2018-11-03T06:26:00.754Z,10.03
2018-11-03T06:27:35.969Z,9.77
2018-11-03T06:29:10.922Z,9.77
2018-11-03T06:30:45.855Z,9.33
2018-11-03T06:32:20.827Z,10.33
2018-11-03T06:33:55.730Z,9.60
2018-11-03T06:35:30.644Z,9.40
2018-11-03T06:37:05.985Z,9.57
2018-11-03T06:38:40.897Z,10.00
2018-11-03T06:40:15.838Z,9.40
2018-11-03T06:41:50.703Z,9.43
2018-11-03T06:43:27.839Z,10.57
2018-11-03T06:45:02.779Z,8.97
2018-11-03T06:46:37.727Z,9.60
2018-11-03T06:48:12.577Z,9.03
2018-11-03T06:49:47.477Z,9.60
2018-11-03T06:51:22.419Z,9.90
2018-11-03T06:52:57.270Z,9.83
2018-11-03T06:54:32.167Z,10.40
2018-11-03T06:56:07.981Z,10.43
2018-11-03T06:57:42.869Z,10.97
2018-11-03T06:59:18.453Z,10.30
2018-11-03T07:00:53.396Z,11.40
2018-11-03T07:02:28.269Z,8.60
2018-11-03T07:04:03.156Z,9.23
2018-11-03T07:05:38.048Z,10.07
2018-11-03T07:07:12.936Z,9.40
2018-11-03T07:08:47.799Z,10.63
2018-11-03T07:10:22.766Z,10.67
2018-11-03T07:11:57.707Z,10.00
2018-11-03T07:13:32.573Z,9.57
2018-11-03T07:15:07.522Z,10.40
2018-11-03T07:16:42.652Z,9.10
2018-11-03T07:18:17.514Z,10.40
2018-11-03T07:19:52.735Z,11.07
2018-11-03T07:21:29.583Z,10.07
2018-11-03T07:23:05.387Z,9.57
2018-11-03T07:24:40.326Z,9.83
2018-11-03T07:26:15.234Z,9.67
2018-11-03T07:27:50.175Z,10.50
2018-11-03T07:29:25.151Z,9.03
2018-11-03T07:31:00.031Z,9.70
2018-11-03T07:32:34.914Z,9.67
2018-11-03T07:34:10.156Z,9.67
2018-11-03T07:35:46.438Z,10.03
2018-11-03T07:37:21.347Z,9.37
2018-11-03T07:38:56.204Z,9.23
2018-11-03T07:40:31.240Z,10.93
2018-11-03T07:42:06.428Z,9.73
2018-11-03T07:43:41.458Z,9.67
2018-11-03T07:45:16.424Z,10.07
2018-11-03T07:46:51.471Z,10.33
2018-11-03T07:48:26.635Z,9.80
2018-11-03T07:50:01.513Z,10.07
2018-11-03T07:51:36.375Z,10.57
2018-11-03T07:53:11.299Z,11.67
2018-11-03T07:54:46.326Z,10.23
2018-11-03T07:56:21.300Z,10.10
2018-11-03T07:57:56.540Z,9.90
2018-11-03T07:59:31.438Z,9.70
2018-11-03T08:01:06.371Z,9.63
2018-11-03T08:02:41.328Z,10.63
2018-11-03T08:04:16.434Z,9.67
2018-11-03T08:05:51.351Z,9.80
2018-11-03T08:07:26.276Z,9.97
2018-11-03T08:09:01.401Z,9.97
2018-11-03T08:10:36.295Z,10.37
2018-11-03T08:12:11.209Z,9.83
2018-11-03T08:13:46.102Z,10.07
2018-11-03T08:15:20.994Z,9.70
2018-11-03T08:16:55.961Z,10.13
2018-11-03T08:18:30.849Z,10.13
2018-11-03T08:20:07.105Z,9.93
2018-11-03T08:21:42.003Z,10.70
2018-11-03T08:23:16.911Z,10.10
2018-11-03T08:24:51.876Z,10.80
2018-11-03T08:26:26.808Z,10.40
2018-11-03T08:28:01.718Z,10.10
2018-11-03T08:29:36.851Z,10.83
2018-11-03T08:31:11.797Z,11.23
2018-11-03T08:32:47.086Z,11.27
2018-11-03T08:34:22.047Z,10.30
2018-11-03T08:35:56.975Z,10.87
2018-11-03T08:37:31.864Z,10.43
2018-11-03T08:39:08.141Z,10.93
2018-11-03T08:40:43.117Z,10.50
2018-11-03T08:42:18.039Z,10.03
2018-11-03T08:43:52.963Z,10.70
2018-11-03T08:45:27.895Z,10.87
2018-11-03T08:47:02.812Z,10.80
2018-11-03T08:48:37.746Z,10.97
2018-11-03T08:50:13.266Z,11.17
2018-11-03T08:51:48.250Z,13.13
2018-11-03T08:53:23.120Z,10.60
2018-11-03T08:54:58.056Z,12.40
2018-11-03T08:56:32.987Z,11.47
2018-11-03T08:58:08.034Z,10.87
2018-11-03T08:59:43.214Z,11.07
2018-11-03T09:01:18.036Z,10.80
2018-11-03T09:02:53.046Z,11.30
2018-11-03T09:04:27.940Z,11.70
2018-11-03T09:06:03.638Z,11.17
2018-11-03T09:07:38.999Z,10.63
2018-11-03T09:09:13.873Z,10.70
2018-11-03T09:10:48.851Z,10.57
2018-11-03T09:12:23.769Z,11.00
2018-11-03T09:13:58.662Z,10.60
2018-11-03T09:15:33.678Z,12.13
2018-11-03T09:17:08.644Z,11.40
2018-11-03T09:18:43.542Z,11.70
2018-11-03T09:20:18.437Z,11.13
2018-11-03T09:21:53.506Z,12.33
2018-11-03T09:23:28.345Z,11.73
2018-11-03T09:25:03.349Z,11.47
2018-11-03T09:26:38.297Z,10.90
2018-11-03T09:28:13.303Z,11.70
2018-11-03T09:29:48.150Z,10.73
2018-11-03T09:31:29.515Z,11.07
2018-11-03T09:33:04.561Z,11.77
2018-11-03T09:34:39.502Z,11.83
2018-11-03T09:36:14.385Z,11.17
2018-11-03T09:37:49.458Z,12.00
2018-11-03T09:39:24.319Z,11.40
2018-11-03T09:40:59.246Z,11.23
2018-11-03T09:42:34.225Z,11.63
2018-11-03T09:44:09.133Z,11.70
2018-11-03T09:45:44.163Z,11.90
2018-11-03T09:47:19.103Z,11.77
2018-11-03T09:48:54.131Z,11.93
2018-11-03T09:50:29.197Z,12.00
2018-11-03T09:52:04.528Z,11.47
2018-11-03T09:53:40.590Z,11.33
2018-11-03T09:55:17.933Z,11.57
2018-11-03T09:56:52.895Z,11.53
2018-11-03T09:58:27.823Z,12.63
2018-11-03T10:00:02.794Z,11.20
2018-11-03T10:01:37.828Z,11.37
2018-11-03T10:03:12.753Z,12.17
2018-11-03T10:04:47.631Z,12.73
2018-11-03T10:06:22.607Z,13.97
2018-11-03T10:07:58.779Z,12.50
2018-11-03T10:09:33.709Z,13.17
2018-11-03T10:11:08.648Z,12.10
2018-11-03T10:12:44.210Z,12.82
2018-11-03T10:14:19.131Z,11.53
2018-11-03T10:15:54.142Z,11.70
2018-11-03T10:17:28.983Z,11.67
2018-11-03T10:19:03.899Z,12.47
2018-11-03T10:20:38.792Z,13.10
2018-11-03T10:22:13.782Z,11.87
2018-11-03T10:23:48.623Z,12.80
2018-11-03T10:25:23.683Z,13.00
2018-11-03T10:26:58.740Z,12.20
2018-11-03T10:28:33.672Z,13.30
2018-11-03T10:30:09.625Z,14.10
2018-11-03T10:31:44.617Z,13.17
2018-11-03T10:33:19.584Z,13.57
2018-11-03T10:34:54.666Z,12.40
2018-11-03T10:36:29.636Z,12.97
2018-11-03T10:38:04.640Z,13.37
2018-11-03T10:39:39.578Z,13.40
2018-11-03T10:41:14.788Z,12.80
2018-11-03T10:42:49.690Z,13.43
2018-11-03T10:44:24.579Z,13.57
2018-11-03T10:45:59.589Z,12.50
2018-11-03T10:47:34.559Z,13.53
2018-11-03T10:49:09.583Z,13.47
2018-11-03T10:50:44.464Z,13.33
2018-11-03T10:52:19.626Z,14.30
2018-11-03T10:53:54.504Z,14.27
2018-11-03T10:55:29.518Z,14.10
2018-11-03T10:57:04.505Z,13.47
2018-11-03T10:58:39.429Z,13.93
2018-11-03T11:00:21.317Z,13.20
2018-11-03T11:02:01.657Z,15.20
2018-11-03T11:03:42.163Z,14.83
2018-11-03T11:05:22.606Z,14.50
2018-11-03T11:07:02.834Z,14.07
2018-11-03T11:10:46.325Z,14.50
2018-11-03T11:12:26.478Z,14.30
2018-11-03T11:14:01.427Z,14.87
2018-11-03T11:15:36.378Z,16.37
2018-11-03T11:17:11.215Z,15.63
2018-11-03T11:18:46.147Z,15.03
2018-11-03T11:20:21.019Z,15.00
2018-11-03T11:21:56.030Z,14.27
2018-11-03T11:23:30.964Z,14.77
2018-11-03T11:25:07.900Z,15.53
2018-11-03T11:26:42.655Z,16.33
2018-11-03T11:28:17.567Z,16.40
2018-11-03T11:29:52.644Z,16.30
2018-11-03T11:31:27.642Z,16.33
2018-11-03T11:33:02.562Z,15.10
2018-11-03T11:34:37.436Z,16.90
2018-11-03T11:36:12.334Z,16.20
2018-11-03T11:37:47.235Z,16.93
2018-11-03T11:39:22.211Z,16.37
2018-11-03T11:40:57.162Z,16.23
2018-11-03T11:42:32.099Z,16.87
2018-11-03T11:44:07.030Z,17.73
2018-11-03T11:45:41.957Z,17.80
2018-11-03T11:47:16.934Z,17.80
2018-11-03T11:48:51.864Z,17.23
2018-11-03T11:50:26.810Z,16.80
2018-11-03T11:52:02.039Z,17.03
2018-11-03T11:53:37.035Z,18.03
2018-11-03T11:55:12.019Z,16.73
2018-11-03T11:56:46.924Z,17.50
2018-11-03T11:58:21.987Z,17.97
2018-11-03T11:59:56.890Z,17.67
2018-11-03T12:01:31.832Z,18.03
2018-11-03T12:03:06.746Z,17.07
2018-11-03T12:04:41.653Z,18.03
2018-11-03T12:06:16.558Z,15.83
2018-11-03T12:07:51.470Z,17.20
2018-11-03T12:09:26.635Z,17.93
2018-11-03T12:11:01.674Z,18.53
2018-11-03T12:12:36.570Z,17.27
2018-11-03T12:14:11.515Z,16.97
2018-11-03T12:15:47.063Z,17.50
2018-11-03T12:17:22.786Z,16.83
2018-11-03T12:18:57.767Z,16.53
2018-11-03T12:20:32.707Z,17.47
2018-11-03T12:22:07.777Z,16.57
2018-11-03T12:23:42.772Z,17.00
2018-11-03T12:25:17.722Z,16.00
2018-11-03T12:26:52.724Z,15.07
2018-11-03T12:28:27.628Z,15.90
2018-11-03T12:30:02.550Z,17.13
2018-11-03T12:31:44.290Z,14.70
2018-11-03T12:33:19.242Z,15.23
2018-11-03T12:34:54.182Z,16.43
2018-11-03T12:36:29.107Z,14.67
2018-11-03T12:38:03.999Z,15.23
2018-11-03T12:39:38.951Z,15.93
2018-11-03T12:41:13.853Z,16.30
2018-11-03T12:42:48.850Z,15.50
2018-11-03T12:44:23.794Z,16.30
2018-11-03T12:45:58.726Z,16.60
2018-11-03T12:47:33.652Z,17.40
2018-11-03T12:49:08.593Z,17.37
2018-11-03T12:50:43.878Z,16.20
2018-11-03T12:52:18.868Z,17.17
2018-11-03T12:53:53.874Z,17.03
2018-11-03T12:55:28.685Z,17.00
2018-11-03T12:57:03.698Z,17.07
2018-11-03T12:58:38.623Z,16.50
2018-11-03T13:00:14.884Z,16.43
2018-11-03T13:01:49.836Z,17.47
2018-11-03T13:03:24.727Z,15.80
2018-11-03T13:04:59.718Z,16.07
2018-11-03T13:06:34.551Z,17.13
2018-11-03T13:08:09.461Z,16.87
2018-11-03T13:09:44.541Z,17.37
2018-11-03T13:11:19.445Z,17.67
2018-11-03T13:12:54.348Z,18.23
2018-11-03T13:14:29.288Z,18.50
2018-11-03T13:16:04.268Z,17.47
2018-11-03T13:17:39.757Z,18.27
2018-11-03T13:19:14.777Z,17.60
2018-11-03T13:20:49.747Z,17.80
2018-11-03T13:22:24.694Z,17.23
2018-11-03T13:23:59.660Z,17.43
2018-11-03T13:25:34.550Z,16.63
2018-11-03T13:27:09.414Z,18.10
2018-11-03T13:28:44.638Z,18.73
2018-11-03T13:30:19.610Z,17.43
2018-11-03T13:31:54.474Z,18.00
2018-11-03T13:33:29.477Z,17.67
2018-11-03T13:35:05.318Z,16.93
2018-11-03T13:36:40.172Z,17.77
2018-11-03T13:38:15.072Z,18.20
2018-11-03T13:39:50.025Z,20.60
2018-11-03T13:41:24.994Z,18.00
2018-11-03T13:42:59.879Z,18.33
2018-11-03T13:44:34.982Z,18.13
2018-11-03T13:46:10.077Z,18.00
2018-11-03T13:47:45.093Z,17.47
2018-11-03T13:49:21.022Z,17.83
2018-11-03T13:50:55.919Z,17.77
2018-11-03T13:52:31.048Z,18.20
2018-11-03T13:54:06.038Z,19.03
2018-11-03T13:55:41.096Z,18.40
2018-11-03T13:57:16.879Z,18.37
2018-11-03T13:58:52.168Z,18.70
2018-11-03T14:00:27.245Z,17.63
2018-11-03T14:02:02.832Z,18.10
2018-11-03T14:03:37.777Z,18.97
2018-11-03T14:05:12.720Z,18.07
2018-11-03T14:06:47.641Z,18.17
2018-11-03T14:08:22.556Z,18.17
2018-11-03T14:09:57.529Z,18.23
2018-11-03T14:11:32.444Z,18.73
2018-11-03T14:13:14.229Z,17.40
2018-11-03T14:14:49.251Z,16.90
2018-11-03T14:16:24.130Z,18.10
2018-11-03T14:17:59.059Z,17.30
2018-11-03T14:19:34.036Z,17.73
2018-11-03T14:21:09.143Z,17.30
2018-11-03T14:22:44.815Z,16.97
2018-11-03T14:24:19.686Z,17.50
2018-11-03T14:25:54.633Z,17.87
2018-11-03T14:27:29.758Z,17.40
2018-11-03T14:29:05.045Z,16.73
2018-11-03T14:30:40.004Z,17.40
2018-11-03T14:32:14.961Z,17.60
2018-11-03T14:33:49.887Z,17.43
2018-11-03T14:35:24.792Z,17.10
2018-11-03T14:36:59.819Z,17.13
2018-11-03T14:38:35.669Z,17.93
2018-11-03T14:40:13.629Z,18.17
2018-11-03T14:41:48.619Z,18.17
2018-11-03T14:43:23.569Z,17.20
2018-11-03T14:44:58.539Z,19.60
2018-11-03T14:46:33.492Z,18.17
2018-11-03T14:48:08.516Z,18.83
2018-11-03T14:49:43.488Z,16.80
2018-11-03T14:51:18.517Z,18.27
2018-11-03T14:52:53.371Z,17.77
2018-11-03T14:54:28.331Z,18.73
2018-11-03T14:56:03.288Z,17.47
2018-11-03T14:57:38.335Z,16.70
2018-11-03T14:59:13.301Z,18.43
2018-11-03T15:00:48.312Z,18.20
2018-11-03T15:02:23.616Z,17.33
2018-11-03T15:03:58.588Z,16.10
2018-11-03T15:05:33.665Z,16.33
2018-11-03T15:07:08.589Z,16.87
2018-11-03T15:08:43.596Z,17.03
2018-11-03T15:10:18.457Z,15.03
2018-11-03T15:11:53.328Z,15.47
2018-11-03T15:13:28.311Z,15.80
2018-11-03T15:15:03.437Z,15.53
2018-11-03T15:16:38.727Z,15.83
2018-11-03T15:18:13.682Z,15.70
2018-11-03T15:19:48.630Z,14.67
2018-11-03T15:21:23.540Z,15.17
2018-11-03T15:22:58.440Z,15.47
2018-11-03T15:24:33.563Z,15.73
2018-11-03T15:26:08.523Z,16.20
2018-11-03T15:27:43.685Z,15.23
2018-11-03T15:29:18.680Z,15.93
2018-11-03T15:30:53.634Z,16.03
2018-11-03T15:32:28.529Z,17.03
2018-11-03T15:34:03.493Z,17.17
2018-11-03T15:35:38.556Z,16.77
2018-11-03T15:37:13.439Z,18.63
2018-11-03T15:38:48.456Z,18.43
2018-11-03T15:40:23.364Z,18.37
2018-11-03T15:41:58.296Z,17.73
2018-11-03T15:43:33.225Z,18.27
2018-11-03T15:45:10.799Z,18.60
2018-11-03T15:46:45.748Z,19.17
2018-11-03T15:48:20.719Z,19.53
2018-11-03T15:49:55.817Z,20.90
2018-11-03T15:51:30.838Z,18.93
2018-11-03T15:53:06.206Z,18.57
2018-11-03T15:54:41.091Z,19.37
2018-11-03T15:56:16.209Z,20.17
2018-11-03T15:57:51.179Z,21.20
2018-11-03T15:59:26.159Z,20.37
2018-11-03T16:01:01.099Z,22.73
2018-11-03T16:02:36.065Z,20.77
2018-11-03T16:04:11.042Z,21.47
2018-11-03T16:05:46.155Z,22.57
2018-11-03T16:07:21.366Z,22.70
2018-11-03T16:08:56.305Z,22.10
2018-11-03T16:10:31.190Z,22.53
2018-11-03T16:12:06.699Z,23.73
2018-11-03T16:13:42.001Z,23.23
2018-11-03T16:15:17.212Z,22.17
2018-11-03T16:16:52.428Z,23.77
2018-11-03T16:18:27.555Z,22.87
2018-11-03T16:20:02.704Z,23.10
2018-11-03T16:21:37.810Z,22.33
2018-11-03T16:23:12.702Z,23.57
2018-11-03T16:24:47.643Z,22.57
2018-11-03T16:26:22.564Z,24.20
2018-11-03T16:27:57.626Z,24.50
2018-11-03T16:29:33.082Z,23.47
2018-11-03T16:31:08.019Z,23.93
2018-11-03T16:32:43.589Z,23.67
2018-11-03T16:34:18.162Z,24.57
2018-11-03T16:35:53.089Z,24.07
2018-11-03T16:37:28.071Z,25.00
2018-11-03T16:39:03.063Z,24.47
2018-11-03T16:40:37.997Z,24.60
2018-11-03T16:42:13.251Z,24.60
2018-11-03T16:43:49.285Z,24.77
2018-11-03T16:45:25.660Z,24.60
2018-11-03T16:47:01.589Z,25.73
2018-11-03T16:48:37.329Z,25.03
2018-11-03T16:50:13.641Z,25.50
2018-11-03T16:51:48.642Z,24.27
2018-11-03T16:53:23.629Z,26.30
2018-11-03T16:54:58.829Z,24.20
2018-11-03T16:56:33.965Z,23.93
2018-11-03T16:58:09.027Z,25.50
2018-11-03T16:59:44.127Z,23.57
2018-11-03T17:01:19.245Z,24.30
2018-11-03T17:02:54.185Z,22.90
2018-11-03T17:04:29.199Z,24.40
2018-11-03T17:06:04.272Z,24.37
2018-11-03T17:07:39.436Z,23.23
2018-11-03T17:09:14.474Z,23.27
2018-11-03T17:10:49.606Z,23.43
2018-11-03T17:12:24.743Z,23.97
2018-11-03T17:13:59.746Z,22.43
2018-11-03T17:15:35.116Z,23.10
2018-11-03T17:17:10.502Z,23.00
2018-11-03T17:18:45.642Z,22.60
2018-11-03T17:20:20.543Z,24.47
2018-11-03T17:21:55.511Z,22.37
2018-11-03T17:23:30.496Z,22.27
2018-11-03T17:25:06.420Z,22.93
2018-11-03T17:26:41.432Z,22.60
2018-11-03T17:28:16.403Z,22.83
2018-11-03T17:29:51.488Z,21.17
2018-11-03T17:31:26.652Z,21.40
2018-11-03T17:33:01.668Z,22.70
2018-11-03T17:34:36.714Z,23.40
2018-11-03T17:36:12.046Z,24.23
2018-11-03T17:37:47.873Z,22.37
2018-11-03T17:39:22.948Z,24.60
2018-11-03T17:40:58.247Z,27.80
2018-11-03T17:42:33.382Z,27.27
2018-11-03T17:44:08.531Z,24.13
2018-11-03T17:45:43.752Z,23.87
2018-11-03T17:47:18.988Z,23.23
2018-11-03T17:48:53.890Z,23.13
2018-11-03T17:50:28.816Z,24.73
2018-11-03T17:52:03.724Z,23.00
2018-11-03T17:53:38.639Z,23.03
2018-11-03T17:55:13.542Z,22.83
2018-11-03T17:56:49.444Z,22.83
2018-11-03T17:58:24.675Z,23.60
2018-11-03T17:59:59.772Z,23.57
2018-11-03T18:01:34.704Z,23.70
2018-11-03T18:03:09.695Z,23.50
2018-11-03T18:04:44.585Z,25.23
2018-11-03T18:06:19.582Z,24.17
2018-11-03T18:07:54.496Z,23.13
2018-11-03T18:09:29.388Z,26.77
2018-11-03T18:11:04.448Z,25.90
2018-11-03T18:12:39.388Z,26.87
2018-11-03T18:14:14.417Z,27.47
2018-11-03T18:15:49.313Z,25.50
2018-11-03T18:17:24.227Z,26.63
2018-11-03T18:18:59.315Z,27.10
2018-11-03T18:20:34.211Z,23.67
2018-11-03T18:22:09.116Z,24.17
2018-11-03T18:23:44.193Z,23.70
2018-11-03T18:25:19.094Z,24.83
2018-11-03T18:26:54.003Z,25.57
2018-11-03T18:28:28.994Z,23.20
2018-11-03T18:30:03.900Z,25.03
2018-11-03T18:31:39.102Z,24.07
2018-11-03T18:33:14.113Z,23.33
2018-11-03T18:34:49.073Z,24.43
2018-11-03T18:36:24.232Z,22.47
2018-11-03T18:37:59.315Z,23.63
2018-11-03T18:39:34.437Z,21.40
2018-11-03T18:41:09.387Z,21.97
2018-11-03T18:42:44.319Z,22.80
2018-11-03T18:44:19.239Z,22.93
2018-11-03T18:45:54.204Z,22.53
2018-11-03T18:47:29.084Z,21.43
2018-11-03T18:49:04.098Z,20.90
2018-11-03T18:50:39.007Z,22.47
2018-11-03T18:52:14.025Z,21.13
2018-11-03T18:53:48.945Z,21.97
2018-11-03T18:55:23.936Z,20.33
2018-11-03T18:56:58.885Z,21.00
2018-11-03T18:58:33.967Z,20.70
2018-11-03T19:00:09.689Z,20.73
2018-11-03T19:01:44.588Z,21.27
2018-11-03T19:03:19.547Z,19.20
2018-11-03T19:04:56.220Z,19.87
2018-11-03T19:06:31.101Z,19.10
2018-11-03T19:08:06.302Z,20.33
2018-11-03T19:09:41.218Z,21.53
2018-11-03T19:11:16.133Z,20.50
2018-11-03T19:12:51.072Z,20.17
2018-11-03T19:14:26.074Z,21.10
2018-11-03T19:16:01.027Z,21.10
2018-11-03T19:17:35.912Z,22.33
2018-11-03T19:19:10.851Z,22.90
2018-11-03T19:20:45.935Z,20.90
2018-11-03T19:22:20.956Z,21.47
2018-11-03T19:23:56.123Z,21.43
2018-11-03T19:25:30.950Z,19.27
2018-11-03T19:27:06.149Z,20.63
2018-11-03T19:28:41.454Z,18.67
2018-11-03T19:30:16.370Z,18.73
2018-11-03T19:31:51.249Z,20.33
2018-11-03T19:33:26.146Z,18.30
2018-11-03T19:35:01.045Z,19.63
2018-11-03T19:36:35.961Z,20.17
2018-11-03T19:38:10.964Z,18.80
2018-11-03T19:39:46.172Z,20.47
2018-11-03T19:41:21.454Z,21.53
2018-11-03T19:42:56.456Z,19.60
2018-11-03T19:44:31.504Z,19.60
2018-11-03T19:46:06.456Z,20.43
2018-11-03T19:47:41.402Z,19.23
2018-11-03T19:49:16.444Z,18.50
2018-11-03T19:50:51.355Z,20.93
2018-11-03T19:52:26.425Z,19.97
2018-11-03T19:54:01.506Z,20.03
2018-11-03T19:55:36.502Z,19.77
2018-11-03T19:57:11.603Z,19.47
2018-11-03T19:58:46.567Z,18.50
2018-11-03T20:00:21.462Z,22.53
2018-11-03T20:01:56.379Z,20.10
2018-11-03T20:03:31.391Z,19.90
2018-11-03T20:05:06.792Z,21.53
2018-11-03T20:06:41.673Z,19.93
2018-11-03T20:08:16.654Z,22.37
2018-11-03T20:09:51.694Z,22.13
2018-11-03T20:11:26.658Z,21.20
2018-11-03T20:13:01.573Z,21.47
2018-11-03T20:14:36.500Z,21.97
2018-11-03T20:16:11.366Z,21.07
2018-11-03T20:17:46.296Z,21.57
2018-11-03T20:19:21.199Z,21.77
2018-11-03T20:20:56.078Z,19.30
2018-11-03T20:22:31.442Z,18.73
2018-11-03T20:24:06.414Z,19.17
2018-11-03T20:25:41.311Z,19.33
2018-11-03T20:27:16.284Z,20.60
2018-11-03T20:28:51.328Z,20.33
2018-11-03T20:30:26.255Z,20.53